• Join FlightAware (Why Join?)
  • Login
  • US Flag 
06:41AM EDT


 

Airport Tracker/Info


-or-


 

Live Flight TrackerFlight Track Log ✈ EJA583 ✈ 12-Nov-2013 ✈ KECP - 4R3

Flight Track Log - Related Links

Times and Time Zones

All times are in EST time to prevent confusion due to time zone crossing. See the EJA583 flight status page for this flight to view local times or setup timezone preferences in your user account.

Time Position Orientation Groundspeed Altitude Reporting Facility
EST Latitude Longitude Course Direction KTS MPH feet Rate Location/Type
09:17AM 30.4825 -85.8647 270° West 254 292 7,500  Level Jacksonville Center
09:18AM 30.5458 -85.9147 326° Northwest 254 292 10,800 2,940 Climbing Jacksonville Center
09:19AM 30.6094 -85.9675 324° Northwest 265 305 13,400 1,620 Climbing Jacksonville Center
09:20AM 30.6831 -86.0253 326° Northwest 294 338 14,100 300 Climbing Jacksonville Center
09:21AM 30.9776 -86.9511 270° West  Level Estimated
09:21AM 30.7650 -86.0861 327° Northwest 326 375 14,100  Level Jacksonville Center
09:22AM 30.8492 -86.1447 329° Northwest 337 388 14,100  Level Jacksonville Center
09:23AM 30.9292 -86.2031 328° Northwest 343 395 14,100  Level Jacksonville Center
09:24AM 31.0131 -86.2642 328° Northwest 348 400 14,100  Level Jacksonville Center
09:25AM 31.0869 -86.3178 328° Northwest 348 400 14,100  Level Jacksonville Center
09:26AM 31.1686 -86.3789 327° Northwest 348 400 14,100  Level Jacksonville Center
09:27AM 31.2486 -86.4378 328° Northwest 348 400 14,100  Level Jacksonville Center
09:28AM 31.3322 -86.5019 327° Northwest 343 395 14,100  Level Jacksonville Center
09:29AM 31.4142 -86.5608 328° Northwest 343 395 14,100  Level Jacksonville Center
09:31AM 31.5586 -86.7342 314° West 338 389 14,100  Level Atlanta Center
09:32AM 31.5500 -86.8461 265° West 333 383 14,100  Level Atlanta Center
09:33AM 31.5392 -86.9531 263° West 333 383 14,100  Level Atlanta Center
09:34AM 31.5322 -87.0647 266° West 333 383 14,100  Level Atlanta Center
09:35AM 31.5233 -87.1742 265° West 338 389 14,100  Level Atlanta Center
09:36AM 31.5164 -87.2811 266° West 343 395 14,100  Level Atlanta Center
09:37AM 31.5069 -87.3928 264° West 343 395 14,100 -900 Level Atlanta Center
09:38AM 31.5019 -87.4972 267° West 343 395 12,400 -1,860 Descending Atlanta Center
09:39AM 31.4908 -87.5992 263° West 338 389 10,400 -1,980 Descending Atlanta Center
09:41AM 31.4839 -87.7161 266° West 280 322 7,500 -1,320 Descending Houston Center
09:42AM 31.4769 -87.7972 264° West 274 315 7,100 -420 Descending Houston Center